createdAt,value
2023-02-10T00:01:42.956Z,3.00
2023-02-10T00:04:12.970Z,3.30
2023-02-10T00:06:44.142Z,2.30
2023-02-10T00:09:14.882Z,2.60
2023-02-10T00:11:58.593Z,2.50
2023-02-10T00:14:28.808Z,2.60
2023-02-10T00:16:58.634Z,2.30
2023-02-10T00:19:28.948Z,1.70
2023-02-10T00:21:57.234Z,2.30
2023-02-10T00:24:25.396Z,1.70
2023-02-10T00:26:54.040Z,2.10
2023-02-10T00:29:22.332Z,1.20
2023-02-10T00:31:50.427Z,1.70
2023-02-10T00:34:19.115Z,1.50
2023-02-10T00:36:51.165Z,1.90
2023-02-10T00:39:19.395Z,1.70
2023-02-10T00:41:47.527Z,1.60
2023-02-10T00:44:15.661Z,2.00
2023-02-10T00:46:43.915Z,2.00
2023-02-10T00:49:13.503Z,2.20
2023-02-10T00:51:41.774Z,2.60
2023-02-10T00:54:13.723Z,1.90
2023-02-10T00:56:42.460Z,3.40
2023-02-10T00:59:14.176Z,2.00
2023-02-10T01:01:43.112Z,1.90
2023-02-10T01:04:11.444Z,2.20
2023-02-10T01:06:39.780Z,2.40
2023-02-10T01:09:07.884Z,4.60
2023-02-10T01:11:36.124Z,2.60
2023-02-10T01:14:05.266Z,1.40
2023-02-10T01:16:33.536Z,2.00
2023-02-10T01:19:02.332Z,1.70
2023-02-10T01:21:33.027Z,1.70
2023-02-10T01:24:01.140Z,3.20
2023-02-10T01:26:29.283Z,1.90
2023-02-10T01:28:59.712Z,1.30
2023-02-10T01:31:28.100Z,1.20
2023-02-10T01:33:56.667Z,1.20
2023-02-10T01:36:25.970Z,1.80
2023-02-10T01:38:54.141Z,2.10
2023-02-10T01:41:24.824Z,2.70
2023-02-10T01:44:04.984Z,5.10
2023-02-10T01:46:35.594Z,1.20
2023-02-10T01:49:15.344Z,1.20
2023-02-10T01:52:00.882Z,1.20
2023-02-10T01:54:34.504Z,1.20
2023-02-10T01:57:03.513Z,1.30
2023-02-10T01:59:34.523Z,1.40
2023-02-10T02:02:08.313Z,4.10
2023-02-10T02:05:01.114Z,1.80
2023-02-10T02:07:33.444Z,1.20
2023-02-10T02:10:03.972Z,1.10
2023-02-10T02:12:57.457Z,1.20
2023-02-10T02:18:33.620Z,1.50
2023-02-10T02:21:28.740Z,1.30
2023-02-10T02:24:28.846Z,1.30
2023-02-10T02:27:15.963Z,1.20
2023-02-10T02:29:53.457Z,0.80
2023-02-10T02:32:22.993Z,0.80
2023-02-10T02:35:03.740Z,2.40
2023-02-10T02:37:39.481Z,4.30
2023-02-10T02:40:08.606Z,1.60
2023-02-10T02:42:37.070Z,0.70
2023-02-10T02:45:08.026Z,0.80
2023-02-10T02:47:59.208Z,1.10
2023-02-10T02:50:30.256Z,2.90
2023-02-10T02:53:34.060Z,4.80
2023-02-10T02:59:05.710Z,1.20
2023-02-10T03:01:40.924Z,0.90
2023-02-10T03:04:11.027Z,1.20
2023-02-10T03:06:41.725Z,1.50
2023-02-10T03:09:10.951Z,2.50
2023-02-10T03:11:39.035Z,1.50
2023-02-10T03:14:07.377Z,0.80
2023-02-10T03:16:35.469Z,0.70
2023-02-10T03:19:03.841Z,0.70
2023-02-10T03:21:31.994Z,1.40
2023-02-10T03:24:02.031Z,4.00
2023-02-10T03:26:30.800Z,0.90
2023-02-10T03:28:59.006Z,1.10
2023-02-10T03:31:27.148Z,0.80
2023-02-10T03:33:55.416Z,1.10
2023-02-10T03:36:23.771Z,1.00
2023-02-10T03:38:52.480Z,0.70
2023-02-10T03:41:20.611Z,2.40
2023-02-10T03:43:48.828Z,1.80
2023-02-10T03:46:17.342Z,2.00
2023-02-10T03:48:45.479Z,2.10
2023-02-10T03:51:13.858Z,1.20
2023-02-10T03:53:42.021Z,24.40
2023-02-10T03:56:10.207Z,1.20
2023-02-10T03:58:38.496Z,0.90
2023-02-10T04:01:15.662Z,14.60
2023-02-10T04:03:44.995Z,2.40
2023-02-10T04:06:13.754Z,1.00
2023-02-10T04:08:42.027Z,0.80
2023-02-10T04:11:10.513Z,0.90
2023-02-10T04:13:38.799Z,1.30
2023-02-10T04:16:10.074Z,1.10
2023-02-10T04:18:39.955Z,0.90
2023-02-10T04:21:10.337Z,0.90
2023-02-10T04:23:38.756Z,3.20
2023-02-10T04:26:07.127Z,3.20
2023-02-10T04:28:35.710Z,0.70
2023-02-10T04:31:06.505Z,1.00
2023-02-10T04:33:35.040Z,0.70
2023-02-10T04:36:04.479Z,0.70
2023-02-10T04:38:35.374Z,0.80
2023-02-10T04:41:06.399Z,3.10
2023-02-10T04:43:35.109Z,1.20
2023-02-10T04:46:06.141Z,0.90
2023-02-10T04:48:35.849Z,0.60
2023-02-10T04:51:12.022Z,0.70
2023-02-10T04:53:41.465Z,1.70
2023-02-10T04:56:09.587Z,0.90
2023-02-10T04:58:39.094Z,6.60
2023-02-10T05:01:07.283Z,7.10
2023-02-10T05:03:35.437Z,6.20
2023-02-10T05:06:09.924Z,1.30
2023-02-10T05:08:42.042Z,0.70
2023-02-10T05:11:12.586Z,1.20
2023-02-10T05:13:41.439Z,0.40
2023-02-10T05:16:11.494Z,0.50
2023-02-10T05:18:43.479Z,1.10
2023-02-10T05:21:14.159Z,0.70
2023-02-10T05:23:42.755Z,6.20
2023-02-10T05:26:16.232Z,1.90
2023-02-10T05:28:44.506Z,1.00
2023-02-10T05:31:12.760Z,1.10
2023-02-10T05:33:41.150Z,1.40
2023-02-10T05:36:10.360Z,2.60
2023-02-10T05:38:38.535Z,1.20
2023-02-10T05:41:06.609Z,1.20
2023-02-10T05:43:35.063Z,1.70
2023-02-10T05:46:06.318Z,1.30
2023-02-10T05:48:34.611Z,0.90
2023-02-10T05:51:03.089Z,6.80
2023-02-10T05:53:31.165Z,13.10
2023-02-10T05:55:59.231Z,3.90
2023-02-10T05:58:29.074Z,2.00
2023-02-10T06:00:57.112Z,7.50
2023-02-10T06:03:25.625Z,1.20
2023-02-10T06:05:53.732Z,0.80
2023-02-10T06:08:21.800Z,1.10
2023-02-10T06:10:50.013Z,2.60
2023-02-10T06:13:18.186Z,18.70
2023-02-10T06:15:46.524Z,16.80
2023-02-10T06:18:15.426Z,18.20
2023-02-10T06:20:46.690Z,0.90
2023-02-10T06:23:15.748Z,16.60
2023-02-10T06:25:44.583Z,26.50
2023-02-10T06:28:12.844Z,25.80
2023-02-10T06:30:43.092Z,34.20
2023-02-10T06:33:11.251Z,13.60
2023-02-10T06:35:39.278Z,5.20
2023-02-10T06:38:07.369Z,0.90
2023-02-10T06:40:35.563Z,11.30
2023-02-10T06:43:04.386Z,36.40
2023-02-10T06:45:33.913Z,15.50
2023-02-10T06:48:05.849Z,35.50
2023-02-10T06:50:33.992Z,23.50
2023-02-10T06:53:02.414Z,9.40
2023-02-10T06:55:31.162Z,4.20
2023-02-10T06:58:00.288Z,3.60
2023-02-10T07:00:28.831Z,3.00
2023-02-10T07:02:56.906Z,2.20
2023-02-10T07:05:26.210Z,15.80
2023-02-10T07:07:55.103Z,12.80
2023-02-10T07:10:23.270Z,8.70
2023-02-10T07:12:52.686Z,13.20
2023-02-10T07:15:23.979Z,14.50
2023-02-10T07:17:53.115Z,15.70
2023-02-10T07:20:22.390Z,15.80
2023-02-10T07:22:51.514Z,10.30
2023-02-10T07:25:20.308Z,12.20
2023-02-10T07:27:48.519Z,12.30
2023-02-10T07:30:16.944Z,13.50
2023-02-10T07:32:45.488Z,11.00
2023-02-10T07:35:14.021Z,22.50
2023-02-10T07:37:42.296Z,15.60
2023-02-10T07:40:11.391Z,16.20
2023-02-10T07:42:39.765Z,17.70
2023-02-10T07:45:20.848Z,31.40
2023-02-10T07:47:48.918Z,15.30
2023-02-10T07:50:17.012Z,11.90
2023-02-10T07:52:45.262Z,14.40
2023-02-10T07:55:13.302Z,12.80
2023-02-10T07:57:42.435Z,11.80
2023-02-10T08:00:13.467Z,10.30
2023-02-10T08:02:41.671Z,7.50
2023-02-10T08:05:10.513Z,7.90
2023-02-10T08:07:38.969Z,9.50
2023-02-10T08:10:07.707Z,12.40
2023-02-10T08:12:35.881Z,11.20
2023-02-10T08:15:04.589Z,14.20
2023-02-10T08:17:33.172Z,13.40
2023-02-10T08:20:01.217Z,14.60
2023-02-10T08:22:29.567Z,9.80
2023-02-10T08:24:57.760Z,8.80
2023-02-10T08:27:26.000Z,10.70
2023-02-10T08:29:54.153Z,11.20
2023-02-10T08:32:23.333Z,11.10
2023-02-10T08:34:51.581Z,10.60
2023-02-10T08:37:20.050Z,13.30
2023-02-10T08:39:48.232Z,14.70
2023-02-10T08:42:16.337Z,14.90
2023-02-10T08:44:44.360Z,17.20
2023-02-10T08:47:15.731Z,15.60
2023-02-10T08:49:44.162Z,11.30
2023-02-10T08:52:12.643Z,12.40
2023-02-10T08:54:40.757Z,13.00
2023-02-10T08:57:09.252Z,14.10
2023-02-10T08:59:37.272Z,17.00
2023-02-10T09:02:05.661Z,17.10
2023-02-10T09:04:33.805Z,25.60
2023-02-10T09:07:02.250Z,18.40
2023-02-10T09:09:30.672Z,15.70
2023-02-10T09:11:58.788Z,16.20
2023-02-10T09:14:26.857Z,14.40
2023-02-10T09:16:55.010Z,19.90
2023-02-10T09:19:24.787Z,18.00
2023-02-10T09:21:52.908Z,17.20
2023-02-10T09:24:21.073Z,16.30
2023-02-10T09:26:49.207Z,16.20
2023-02-10T09:29:17.182Z,14.30
2023-02-10T09:31:45.435Z,11.10
2023-02-10T09:34:13.785Z,13.80
2023-02-10T09:36:41.797Z,11.40
2023-02-10T09:39:10.347Z,11.80
2023-02-10T09:41:47.118Z,11.20
2023-02-10T09:44:21.134Z,10.90
2023-02-10T09:47:14.303Z,10.30
2023-02-10T09:49:48.471Z,8.90
2023-02-10T09:52:23.544Z,9.00
2023-02-10T09:54:53.354Z,9.10
2023-02-10T09:57:50.943Z,9.30
2023-02-10T10:00:30.502Z,9.50
2023-02-10T10:02:59.973Z,9.30
2023-02-10T10:05:46.645Z,8.70
2023-02-10T10:08:30.634Z,7.80
2023-02-10T10:11:05.184Z,7.50
2023-02-10T10:13:33.314Z,7.70
2023-02-10T10:16:07.295Z,8.70
2023-02-10T10:18:51.676Z,8.60
2023-02-10T10:21:33.065Z,8.20
2023-02-10T10:24:16.592Z,7.90
2023-02-10T10:26:53.500Z,7.90
2023-02-10T10:29:31.613Z,9.00
2023-02-10T10:32:15.148Z,9.30
2023-02-10T10:34:51.681Z,7.80
2023-02-10T10:37:23.521Z,7.60
2023-02-10T10:40:02.700Z,8.30
2023-02-10T10:42:42.768Z,6.60
2023-02-10T10:45:19.328Z,5.40
2023-02-10T10:48:00.433Z,5.80
2023-02-10T10:50:28.965Z,4.80
2023-02-10T10:52:58.806Z,5.10
2023-02-10T10:55:40.925Z,5.70
2023-02-10T10:58:40.886Z,5.90
2023-02-10T11:01:09.096Z,6.10
2023-02-10T11:03:37.211Z,6.40
2023-02-10T11:06:10.473Z,7.00
2023-02-10T11:11:27.506Z,6.50
2023-02-10T11:14:03.406Z,7.70
2023-02-10T11:16:42.740Z,8.30
2023-02-10T11:19:23.303Z,8.20
2023-02-10T11:21:52.635Z,8.00
2023-02-10T11:24:26.631Z,10.20
2023-02-10T11:26:56.160Z,11.20
2023-02-10T11:29:24.652Z,9.30
2023-02-10T11:31:55.031Z,8.30
2023-02-10T11:34:31.336Z,7.10
2023-02-10T11:37:10.332Z,8.20
2023-02-10T11:39:45.306Z,8.50
2023-02-10T11:42:23.540Z,8.50
2023-02-10T11:44:54.752Z,11.70
2023-02-10T11:47:23.814Z,11.00
2023-02-10T11:49:51.944Z,8.40
2023-02-10T11:52:23.334Z,11.60
2023-02-10T11:54:52.549Z,11.90
2023-02-10T11:57:53.173Z,12.00
2023-02-10T12:00:38.948Z,9.60
2023-02-10T12:03:29.066Z,11.30
2023-02-10T12:06:23.290Z,9.70
2023-02-10T12:09:35.671Z,9.50
2023-02-10T12:12:14.713Z,8.70
2023-02-10T12:15:04.365Z,9.20
2023-02-10T12:17:55.339Z,9.60
2023-02-10T12:20:35.501Z,9.60
2023-02-10T12:23:25.829Z,10.60
2023-02-10T12:25:53.862Z,9.60
2023-02-10T12:28:47.923Z,15.10
2023-02-10T12:31:38.047Z,13.00
2023-02-10T12:34:36.680Z,11.10
2023-02-10T12:37:53.131Z,11.20
2023-02-10T12:40:57.437Z,11.90
2023-02-10T12:43:47.549Z,12.00
2023-02-10T12:46:47.461Z,9.00
2023-02-10T12:49:36.367Z,9.10
2023-02-10T12:52:39.213Z,10.10
2023-02-10T12:55:21.963Z,9.60
2023-02-10T12:58:00.078Z,7.70
2023-02-10T13:00:37.096Z,7.80
2023-02-10T13:03:25.825Z,6.80
2023-02-10T13:06:03.199Z,7.90
2023-02-10T13:08:40.770Z,10.20
2023-02-10T13:11:17.337Z,8.40
2023-02-10T13:13:48.730Z,8.80
2023-02-10T13:16:26.332Z,8.80
2023-02-10T13:19:12.586Z,8.00
2023-02-10T13:21:58.698Z,8.00
2023-02-10T13:24:37.338Z,7.40
2023-02-10T13:27:22.025Z,10.00
2023-02-10T13:30:15.185Z,13.40
2023-02-10T13:32:52.339Z,10.80
2023-02-10T13:35:24.454Z,11.00
2023-02-10T13:37:58.476Z,7.10
2023-02-10T13:40:49.307Z,9.90
2023-02-10T13:43:34.016Z,9.40
2023-02-10T13:46:03.403Z,12.40
2023-02-10T13:48:35.582Z,14.00
2023-02-10T13:51:07.667Z,10.90
2023-02-10T13:53:35.664Z,13.70
2023-02-10T13:56:20.717Z,8.30
2023-02-10T13:58:55.701Z,11.70
2023-02-10T14:01:34.308Z,11.10
2023-02-10T14:04:07.096Z,8.30
2023-02-10T14:06:40.305Z,9.30
2023-02-10T14:11:53.003Z,5.70
2023-02-10T14:14:32.184Z,7.50
2023-02-10T14:17:25.164Z,7.40
2023-02-10T14:19:53.654Z,9.00
2023-02-10T14:22:27.121Z,8.10
2023-02-10T14:24:56.519Z,9.50
2023-02-10T14:27:26.706Z,7.90
2023-02-10T14:30:01.731Z,5.30
2023-02-10T14:32:31.989Z,4.80
2023-02-10T14:35:03.455Z,5.10
2023-02-10T14:37:31.572Z,4.50
2023-02-10T14:40:03.007Z,4.30
2023-02-10T14:42:33.015Z,4.60
2023-02-10T14:45:04.688Z,3.70
2023-02-10T14:47:39.189Z,4.10
2023-02-10T14:50:08.162Z,3.60
2023-02-10T14:52:47.171Z,3.30
2023-02-10T14:55:33.643Z,2.60
2023-02-10T14:58:06.475Z,2.90
2023-02-10T15:00:36.206Z,4.30
2023-02-10T15:03:05.654Z,3.80
2023-02-10T15:05:44.982Z,3.50
2023-02-10T15:08:21.201Z,3.40
2023-02-10T15:10:54.440Z,3.10
2023-02-10T15:13:31.820Z,4.30
2023-02-10T15:16:00.414Z,3.30
2023-02-10T15:18:31.706Z,3.80
2023-02-10T15:21:07.152Z,3.40
2023-02-10T15:23:35.183Z,3.30
2023-02-10T15:26:17.347Z,3.50
2023-02-10T15:28:45.633Z,3.20
2023-02-10T15:31:13.672Z,3.40
2023-02-10T15:33:53.411Z,3.70
2023-02-10T15:36:45.157Z,3.40
2023-02-10T15:39:42.757Z,3.50
2023-02-10T15:42:14.406Z,3.30
2023-02-10T15:44:44.469Z,3.60
2023-02-10T15:47:12.504Z,3.30
2023-02-10T15:49:40.504Z,3.90
2023-02-10T15:52:15.013Z,3.00
2023-02-10T15:54:43.256Z,4.10
2023-02-10T15:57:13.098Z,3.10
2023-02-10T15:59:41.445Z,3.30
2023-02-10T16:02:14.982Z,3.80
2023-02-10T16:04:44.327Z,3.60
2023-02-10T16:07:19.649Z,4.70
2023-02-10T16:09:49.898Z,4.00
2023-02-10T16:12:18.952Z,4.70
2023-02-10T16:14:47.329Z,4.00
2023-02-10T16:17:24.225Z,4.80
2023-02-10T16:19:52.853Z,3.70
2023-02-10T16:22:21.085Z,3.60
2023-02-10T16:24:49.512Z,4.40
2023-02-10T16:27:17.762Z,4.30
2023-02-10T16:29:47.090Z,4.80
2023-02-10T16:32:15.557Z,3.80
2023-02-10T16:34:43.574Z,2.90
2023-02-10T16:37:20.647Z,3.90
2023-02-10T16:39:50.475Z,4.00
2023-02-10T16:42:18.581Z,3.30
2023-02-10T16:44:48.684Z,3.10
2023-02-10T16:47:20.670Z,3.50
2023-02-10T16:49:50.364Z,4.50
2023-02-10T16:52:22.174Z,3.60
2023-02-10T16:54:51.185Z,4.10
2023-02-10T16:57:20.572Z,3.90
2023-02-10T16:59:50.057Z,3.40
2023-02-10T17:02:18.726Z,3.80
2023-02-10T17:04:46.862Z,4.50
2023-02-10T17:07:15.217Z,3.10
2023-02-10T17:09:43.459Z,3.50
2023-02-10T17:12:11.434Z,3.60
2023-02-10T17:14:39.409Z,4.30
2023-02-10T17:17:07.400Z,5.10
2023-02-10T17:19:35.513Z,3.90
2023-02-10T17:22:03.786Z,3.90
2023-02-10T17:24:32.028Z,3.60
2023-02-10T17:27:00.365Z,4.70
2023-02-10T17:29:28.495Z,5.20
2023-02-10T17:31:57.019Z,4.70
2023-02-10T17:34:25.213Z,4.80
2023-02-10T17:36:53.762Z,5.30
2023-02-10T17:39:24.751Z,3.80
2023-02-10T17:41:54.672Z,5.50
2023-02-10T17:44:23.222Z,3.80
2023-02-10T17:46:55.902Z,5.00
2023-02-10T17:49:27.069Z,4.10
2023-02-10T17:51:55.605Z,5.10
2023-02-10T17:54:23.734Z,3.90
2023-02-10T17:56:51.820Z,4.70
2023-02-10T17:59:20.634Z,4.20
2023-02-10T18:01:48.710Z,5.10
2023-02-10T18:04:17.861Z,4.40
2023-02-10T18:06:46.126Z,4.40
2023-02-10T18:09:14.306Z,3.90
2023-02-10T18:11:42.371Z,5.50
2023-02-10T18:14:10.458Z,4.30
2023-02-10T18:16:39.005Z,3.60
2023-02-10T18:19:07.067Z,5.10
2023-02-10T18:21:35.090Z,5.30
2023-02-10T18:24:03.313Z,5.10
2023-02-10T18:26:31.383Z,4.50
2023-02-10T18:28:59.502Z,3.70
2023-02-10T18:31:27.605Z,4.70
2023-02-10T18:33:56.234Z,4.40
2023-02-10T18:36:24.423Z,5.20
2023-02-10T18:38:52.363Z,5.10
2023-02-10T18:41:20.533Z,5.50
2023-02-10T18:43:48.700Z,4.60
2023-02-10T18:46:18.165Z,5.50
2023-02-10T18:48:47.180Z,5.10
2023-02-10T18:51:17.594Z,5.30
2023-02-10T18:53:45.832Z,5.20
2023-02-10T18:56:18.032Z,5.40
2023-02-10T18:58:46.355Z,5.90
2023-02-10T19:01:23.552Z,5.30
2023-02-10T19:03:52.521Z,4.70
2023-02-10T19:06:21.103Z,4.90
2023-02-10T19:08:49.165Z,5.00
2023-02-10T19:11:19.226Z,4.20
2023-02-10T19:13:47.555Z,3.90
2023-02-10T19:16:17.038Z,4.60
2023-02-10T19:18:45.324Z,5.90
2023-02-10T19:21:14.178Z,3.80
2023-02-10T19:23:43.867Z,4.90
2023-02-10T19:26:12.813Z,4.30
2023-02-10T19:28:42.720Z,5.00
2023-02-10T19:31:12.786Z,4.50
2023-02-10T19:33:46.285Z,4.70
2023-02-10T19:36:19.759Z,3.10
2023-02-10T19:38:51.915Z,4.40
2023-02-10T19:41:22.817Z,4.60
2023-02-10T19:43:51.119Z,4.10
2023-02-10T19:46:19.831Z,3.30
2023-02-10T19:48:48.252Z,4.70
2023-02-10T19:51:22.252Z,4.60
2023-02-10T19:53:51.637Z,4.80
2023-02-10T19:56:19.980Z,4.40
2023-02-10T19:58:48.128Z,4.50
2023-02-10T20:01:18.201Z,5.20
2023-02-10T20:03:49.878Z,2.90
2023-02-10T20:06:30.768Z,3.80
2023-02-10T20:08:59.670Z,3.30
2023-02-10T20:11:28.401Z,4.40
2023-02-10T20:13:56.853Z,4.00
2023-02-10T20:16:25.224Z,4.20
2023-02-10T20:18:53.358Z,4.10
2023-02-10T20:21:21.466Z,4.20
2023-02-10T20:23:49.495Z,3.90
2023-02-10T20:26:17.594Z,3.30
2023-02-10T20:28:45.693Z,3.60
2023-02-10T20:31:16.674Z,3.50
2023-02-10T20:33:48.085Z,4.60
2023-02-10T20:36:18.297Z,4.10
2023-02-10T20:38:48.028Z,4.60
2023-02-10T20:41:19.715Z,4.40
2023-02-10T20:43:49.715Z,4.70
2023-02-10T20:46:18.881Z,4.10
2023-02-10T20:48:48.692Z,4.60
2023-02-10T20:51:17.822Z,5.00
2023-02-10T20:53:47.060Z,5.00
2023-02-10T20:56:17.396Z,4.50
2023-02-10T20:58:45.548Z,4.10
2023-02-10T21:01:15.649Z,3.60
2023-02-10T21:03:44.158Z,3.90
2023-02-10T21:06:25.208Z,3.60
2023-02-10T21:08:55.093Z,3.80
2023-02-10T21:11:27.184Z,3.60
2023-02-10T21:13:55.934Z,2.80
2023-02-10T21:16:25.184Z,3.20
2023-02-10T21:18:53.677Z,2.60
2023-02-10T21:21:22.323Z,3.00
2023-02-10T21:23:50.664Z,4.80
2023-02-10T21:26:18.989Z,4.10
2023-02-10T21:28:47.113Z,3.70
2023-02-10T21:31:24.462Z,4.50
2023-02-10T21:33:53.078Z,3.80
2023-02-10T21:36:24.052Z,3.70
2023-02-10T21:38:53.172Z,3.70
2023-02-10T21:41:42.356Z,2.80
2023-02-10T21:44:11.261Z,5.20
2023-02-10T21:46:39.636Z,3.60
2023-02-10T21:49:07.848Z,4.10
2023-02-10T21:51:36.177Z,2.80
2023-02-10T21:54:04.717Z,2.00
2023-02-10T21:56:33.316Z,3.50
2023-02-10T21:59:01.860Z,4.50
2023-02-10T22:01:29.864Z,6.20
2023-02-10T22:03:58.109Z,4.30
2023-02-10T22:06:27.189Z,4.40
2023-02-10T22:08:55.342Z,9.90
2023-02-10T22:11:23.500Z,4.20
2023-02-10T22:13:52.554Z,4.10
2023-02-10T22:16:20.849Z,3.80
2023-02-10T22:18:49.000Z,4.60
2023-02-10T22:21:23.196Z,2.90
2023-02-10T22:23:51.622Z,4.20
2023-02-10T22:26:22.163Z,4.30
2023-02-10T22:28:51.710Z,3.90
2023-02-10T22:31:22.519Z,3.90
2023-02-10T22:33:52.710Z,3.90
2023-02-10T22:36:21.809Z,3.60
2023-02-10T22:38:50.996Z,4.00
2023-02-10T22:41:25.703Z,3.50
2023-02-10T22:43:54.372Z,3.40
2023-02-10T22:46:22.436Z,3.00
2023-02-10T22:48:51.967Z,3.20
2023-02-10T22:51:23.304Z,2.10
2023-02-10T22:53:57.275Z,2.20
2023-02-10T22:56:29.522Z,3.00
2023-02-10T22:58:59.328Z,2.50
2023-02-10T23:01:39.760Z,2.90
2023-02-10T23:04:09.956Z,3.20
2023-02-10T23:06:39.413Z,1.40
2023-02-10T23:09:08.465Z,3.00
2023-02-10T23:11:39.895Z,3.20
2023-02-10T23:14:07.983Z,4.10
2023-02-10T23:16:36.259Z,3.60
2023-02-10T23:19:05.095Z,3.30
2023-02-10T23:21:33.277Z,3.20
2023-02-10T23:24:01.386Z,2.70
2023-02-10T23:26:32.742Z,3.50
2023-02-10T23:29:06.973Z,3.60
2023-02-10T23:31:36.051Z,2.30
2023-02-10T23:34:05.038Z,3.60
2023-02-10T23:36:33.085Z,3.50
2023-02-10T23:39:02.340Z,4.00
2023-02-10T23:41:30.495Z,3.50
2023-02-10T23:43:59.909Z,2.90
2023-02-10T23:46:28.782Z,2.80
2023-02-10T23:48:56.901Z,3.20
2023-02-10T23:51:26.147Z,2.90
2023-02-10T23:53:54.507Z,3.10
2023-02-10T23:56:24.549Z,3.30
2023-02-10T23:58:53.603Z,3.40
